createdAt,value
2018-05-21T00:01:53.776Z,60.60
2018-05-21T00:04:26.248Z,62.60
2018-05-21T00:06:58.595Z,61.40
2018-05-21T00:09:31.130Z,59.70
2018-05-21T00:12:03.679Z,61.20
2018-05-21T00:14:36.987Z,59.00
2018-05-21T00:17:10.279Z,59.00
2018-05-21T00:19:42.719Z,59.20
2018-05-21T00:22:15.462Z,59.60
2018-05-21T00:24:47.952Z,59.70
2018-05-21T00:27:20.656Z,60.00
2018-05-21T00:29:53.798Z,60.70
2018-05-21T00:32:26.260Z,61.90
2018-05-21T00:34:58.959Z,61.40
2018-05-21T00:37:31.583Z,59.70
2018-05-21T00:40:04.064Z,59.70
2018-05-21T00:42:36.767Z,60.20
2018-05-21T00:45:09.867Z,61.50
2018-05-21T00:47:42.650Z,59.90
2018-05-21T00:50:15.485Z,61.40
2018-05-21T00:52:48.098Z,61.70
2018-05-21T00:55:33.532Z,62.20
2018-05-21T00:58:05.934Z,62.20
2018-05-21T01:00:39.091Z,61.30
2018-05-21T01:03:11.570Z,62.20
2018-05-21T01:05:44.288Z,62.50
2018-05-21T01:08:18.334Z,62.70
2018-05-21T01:10:50.785Z,62.60
2018-05-21T01:13:24.085Z,63.40
2018-05-21T01:18:36.435Z,64.60
2018-05-21T01:21:08.870Z,64.50
2018-05-21T01:23:41.407Z,64.20
2018-05-21T01:26:15.329Z,65.40
2018-05-21T01:28:47.937Z,65.40
2018-05-21T01:31:20.509Z,65.40
2018-05-21T01:33:53.169Z,65.70
2018-05-21T01:36:25.668Z,65.80
2018-05-21T01:38:58.199Z,65.50
2018-05-21T01:41:30.605Z,65.10
2018-05-21T01:44:03.063Z,65.10
2018-05-21T01:46:35.534Z,65.30
2018-05-21T01:49:08.337Z,64.90
2018-05-21T01:51:40.798Z,63.70
2018-05-21T01:54:13.485Z,63.80
2018-05-21T01:56:46.682Z,63.00
2018-05-21T01:59:19.953Z,62.70
2018-05-21T02:01:53.214Z,62.40
2018-05-21T02:04:25.752Z,62.70
2018-05-21T02:06:58.581Z,62.40
2018-05-21T02:09:31.197Z,62.50
2018-05-21T02:12:03.832Z,62.20
2018-05-21T02:14:36.444Z,63.00
2018-05-21T02:19:48.257Z,63.90
2018-05-21T02:22:21.052Z,63.60
2018-05-21T02:24:53.719Z,64.20
2018-05-21T02:27:27.739Z,65.80
2018-05-21T02:30:00.205Z,65.70
2018-05-21T02:32:33.672Z,66.20
2018-05-21T02:35:06.144Z,66.10
2018-05-21T02:37:38.768Z,66.50
2018-05-21T02:40:11.304Z,66.40
2018-05-21T02:42:43.723Z,66.80
2018-05-21T02:45:16.475Z,67.00
2018-05-21T02:47:49.242Z,66.80
2018-05-21T02:50:22.481Z,67.50
2018-05-21T02:52:54.993Z,68.20
2018-05-21T02:55:27.459Z,67.50
2018-05-21T02:58:00.630Z,68.10
2018-05-21T03:00:34.087Z,68.30
2018-05-21T03:03:06.724Z,68.40
2018-05-21T03:05:39.454Z,68.20
2018-05-21T03:08:11.897Z,68.30
2018-05-21T03:10:44.520Z,68.30
2018-05-21T03:13:17.742Z,68.70
2018-05-21T03:15:50.243Z,69.40
2018-05-21T03:18:22.886Z,69.60
2018-05-21T03:20:55.505Z,70.10
2018-05-21T03:23:28.013Z,70.00
2018-05-21T03:26:00.592Z,70.20
2018-05-21T03:28:33.991Z,70.70
2018-05-21T03:31:07.344Z,70.70
2018-05-21T03:33:39.843Z,70.70
2018-05-21T03:36:12.287Z,71.10
2018-05-21T03:38:45.709Z,71.10
2018-05-21T03:41:18.277Z,71.00
2018-05-21T03:43:51.471Z,69.90
2018-05-21T03:46:24.060Z,69.90
2018-05-21T03:48:56.686Z,70.50
2018-05-21T03:51:29.399Z,70.70
2018-05-21T03:54:01.838Z,70.40
2018-05-21T03:56:34.546Z,70.20
2018-05-21T03:59:19.655Z,70.50
2018-05-21T04:02:05.434Z,70.10
2018-05-21T04:04:37.988Z,70.70
2018-05-21T04:07:10.483Z,70.60
2018-05-21T04:09:43.058Z,71.10
2018-05-21T04:12:15.913Z,71.60
2018-05-21T04:14:49.209Z,71.90
2018-05-21T04:17:22.058Z,71.90
2018-05-21T04:19:54.586Z,72.40
2018-05-21T04:22:27.132Z,72.60
2018-05-21T04:24:59.723Z,73.00
2018-05-21T04:27:32.939Z,72.90
2018-05-21T04:30:12.498Z,72.90
2018-05-21T04:32:45.984Z,73.20
2018-05-21T04:35:18.545Z,73.10
2018-05-21T04:37:51.010Z,73.40
2018-05-21T04:40:23.744Z,73.00
2018-05-21T04:42:56.436Z,73.60
2018-05-21T04:45:29.005Z,73.60
2018-05-21T04:48:01.445Z,73.60
2018-05-21T04:50:34.090Z,74.10
2018-05-21T04:53:06.958Z,74.30
2018-05-21T04:55:39.421Z,74.50
2018-05-21T04:58:13.119Z,74.20
2018-05-21T05:00:45.633Z,74.20
2018-05-21T05:03:18.226Z,73.60
2018-05-21T05:05:50.898Z,74.30
2018-05-21T05:08:23.309Z,74.00
2018-05-21T05:10:55.828Z,73.70
2018-05-21T05:13:28.268Z,73.80
2018-05-21T05:16:00.720Z,72.80
2018-05-21T05:18:33.262Z,72.40
2018-05-21T05:21:06.144Z,70.20
2018-05-21T05:23:38.627Z,70.60
2018-05-21T05:26:11.243Z,70.70
2018-05-21T05:28:43.695Z,70.40
2018-05-21T05:31:16.860Z,70.30
2018-05-21T05:33:50.100Z,69.00
2018-05-21T05:36:22.567Z,69.00
2018-05-21T05:38:54.981Z,68.00
2018-05-21T05:41:27.646Z,67.70
2018-05-21T05:44:00.873Z,66.20
2018-05-21T05:46:33.428Z,66.20
2018-05-21T05:49:05.974Z,66.30
2018-05-21T05:51:38.367Z,66.00
2018-05-21T05:54:10.875Z,65.60
2018-05-21T05:56:44.189Z,65.40
2018-05-21T05:59:16.750Z,65.30
2018-05-21T06:01:49.936Z,65.60
2018-05-21T06:04:23.850Z,63.80
2018-05-21T06:06:56.367Z,63.80
2018-05-21T06:09:29.004Z,62.50
2018-05-21T06:12:01.439Z,62.60
2018-05-21T06:14:34.058Z,63.00
2018-05-21T06:17:06.648Z,61.50
2018-05-21T06:19:39.334Z,61.20
2018-05-21T06:22:11.987Z,60.90
2018-05-21T06:24:44.567Z,60.60
2018-05-21T06:27:17.060Z,60.40
2018-05-21T06:29:49.740Z,60.10
2018-05-21T06:32:22.343Z,59.80
2018-05-21T06:34:55.573Z,59.90
2018-05-21T06:37:28.133Z,59.90
2018-05-21T06:40:07.650Z,59.90
2018-05-21T06:42:41.608Z,59.30
2018-05-21T06:45:14.168Z,59.30
2018-05-21T06:47:47.543Z,59.00
2018-05-21T06:50:20.184Z,59.00
2018-05-21T06:52:52.974Z,58.80
2018-05-21T06:55:25.725Z,59.30
2018-05-21T06:57:58.472Z,58.70
2018-05-21T07:00:31.064Z,58.10
2018-05-21T07:03:03.643Z,58.30
2018-05-21T07:05:36.328Z,58.50
2018-05-21T07:08:08.959Z,58.20
2018-05-21T07:10:42.945Z,57.50
2018-05-21T07:13:15.500Z,57.50
2018-05-21T07:15:48.171Z,57.70
2018-05-21T07:18:21.317Z,56.90
2018-05-21T07:20:53.828Z,56.60
2018-05-21T07:23:26.684Z,56.20
2018-05-21T07:25:59.275Z,56.80
2018-05-21T07:28:31.969Z,56.30
2018-05-21T07:31:05.247Z,56.80
2018-05-21T07:33:38.663Z,55.30
2018-05-21T07:36:11.309Z,55.30
2018-05-21T07:38:43.751Z,55.50
2018-05-21T07:43:57.091Z,55.10
2018-05-21T07:46:29.752Z,55.60
2018-05-21T07:49:02.299Z,55.30
2018-05-21T07:51:34.953Z,54.90
2018-05-21T07:54:07.804Z,54.90
2018-05-21T07:56:40.429Z,53.20
2018-05-21T07:59:13.295Z,53.50
2018-05-21T08:01:45.839Z,53.20
2018-05-21T08:04:18.319Z,53.90
2018-05-21T08:06:51.140Z,52.90
2018-05-21T08:09:24.287Z,51.90
2018-05-21T08:11:57.538Z,51.30
2018-05-21T08:14:30.820Z,51.00
2018-05-21T08:17:03.418Z,51.00
2018-05-21T08:19:36.082Z,50.20
2018-05-21T08:22:09.322Z,51.80
2018-05-21T08:24:41.678Z,51.70
2018-05-21T08:27:14.928Z,50.60
2018-05-21T08:29:48.154Z,49.90
2018-05-21T08:32:20.555Z,49.90
2018-05-21T08:34:53.136Z,49.70
2018-05-21T08:37:25.784Z,50.10
2018-05-21T08:39:58.963Z,49.30
2018-05-21T08:42:31.667Z,49.30
2018-05-21T08:45:04.493Z,49.60
2018-05-21T08:47:37.013Z,49.30
2018-05-21T08:50:09.703Z,48.50
2018-05-21T08:52:42.120Z,47.90
2018-05-21T08:55:15.436Z,46.40
2018-05-21T08:57:48.675Z,45.90
2018-05-21T09:00:21.986Z,45.50
2018-05-21T09:02:54.702Z,45.50
2018-05-21T09:05:27.317Z,44.70
2018-05-21T09:08:00.501Z,44.70
2018-05-21T09:10:33.150Z,44.70
2018-05-21T09:13:06.364Z,45.00
2018-05-21T09:15:40.311Z,44.80
2018-05-21T09:18:12.854Z,44.70
2018-05-21T09:20:45.413Z,44.80
2018-05-21T09:23:18.784Z,43.20
2018-05-21T09:25:51.340Z,43.20
2018-05-21T09:28:23.942Z,43.10
2018-05-21T09:30:56.730Z,40.70
2018-05-21T09:33:29.301Z,41.90
2018-05-21T09:36:01.725Z,40.40
2018-05-21T09:38:34.930Z,40.50
2018-05-21T09:41:07.869Z,40.50
2018-05-21T09:43:40.557Z,41.70
2018-05-21T09:46:13.809Z,41.10
2018-05-21T09:48:46.549Z,40.90
2018-05-21T09:51:19.156Z,40.20
2018-05-21T09:53:51.757Z,40.80
2018-05-21T09:56:24.549Z,41.00
2018-05-21T09:58:57.149Z,40.50
2018-05-21T10:01:30.016Z,39.90
2018-05-21T10:04:03.457Z,40.90
2018-05-21T10:06:36.007Z,40.80
2018-05-21T10:09:09.453Z,39.50
2018-05-21T10:11:42.249Z,39.50
2018-05-21T10:14:14.784Z,39.70
2018-05-21T10:16:48.260Z,38.60
2018-05-21T10:19:20.759Z,38.60
2018-05-21T10:21:53.477Z,38.50
2018-05-21T10:24:26.183Z,38.60
2018-05-21T10:26:58.960Z,40.40
2018-05-21T10:29:31.524Z,38.40
2018-05-21T10:32:04.427Z,38.10
2018-05-21T10:34:37.149Z,38.90
2018-05-21T10:37:09.654Z,38.20
2018-05-21T10:42:22.330Z,37.90
2018-05-21T10:44:54.921Z,39.30
2018-05-21T10:47:27.407Z,37.70
2018-05-21T10:50:00.031Z,39.60
2018-05-21T10:52:39.467Z,39.80
2018-05-21T10:55:11.973Z,40.30
2018-05-21T10:57:44.655Z,39.80
2018-05-21T11:00:17.639Z,38.20
2018-05-21T11:02:50.261Z,38.80
2018-05-21T11:05:22.864Z,38.70
2018-05-21T11:07:56.520Z,38.20
2018-05-21T11:10:29.160Z,38.20
2018-05-21T11:13:01.765Z,37.20
2018-05-21T11:15:34.360Z,36.60
2018-05-21T11:18:07.195Z,36.20
2018-05-21T11:20:39.882Z,37.00
2018-05-21T11:23:12.490Z,36.30
2018-05-21T11:25:45.206Z,35.80
2018-05-21T11:28:17.999Z,36.20
2018-05-21T11:30:50.774Z,36.20
2018-05-21T11:33:23.330Z,36.00
2018-05-21T11:35:56.278Z,36.60
2018-05-21T11:38:28.805Z,36.70
2018-05-21T11:41:01.293Z,35.70
2018-05-21T11:43:33.731Z,35.50
2018-05-21T11:46:06.163Z,35.20
2018-05-21T11:48:38.775Z,34.50
2018-05-21T11:51:11.302Z,35.20
2018-05-21T11:53:44.195Z,35.80
2018-05-21T11:56:16.750Z,36.40
2018-05-21T11:58:49.355Z,35.40
2018-05-21T12:01:21.936Z,35.90
2018-05-21T12:03:55.578Z,35.60
2018-05-21T12:06:28.061Z,35.60
2018-05-21T12:09:01.505Z,34.50
2018-05-21T12:11:34.063Z,34.50
2018-05-21T12:14:06.764Z,34.10
2018-05-21T12:16:39.549Z,33.70
2018-05-21T12:19:12.308Z,35.00
2018-05-21T12:21:44.834Z,33.30
2018-05-21T12:24:17.408Z,34.10
2018-05-21T12:26:50.068Z,35.30
2018-05-21T12:29:23.287Z,36.10
2018-05-21T12:31:56.814Z,35.20
2018-05-21T12:34:29.381Z,35.10
2018-05-21T12:37:02.051Z,34.80
2018-05-21T12:39:34.690Z,34.80
2018-05-21T12:42:07.288Z,34.20
2018-05-21T12:44:40.723Z,32.90
2018-05-21T12:47:13.245Z,32.90
2018-05-21T12:49:45.851Z,34.20
2018-05-21T12:52:19.204Z,32.70
2018-05-21T12:54:52.430Z,29.70
2018-05-21T12:57:25.600Z,29.30
2018-05-21T12:59:58.194Z,29.30
2018-05-21T13:02:30.734Z,28.40
2018-05-21T13:05:03.604Z,27.60
2018-05-21T13:07:36.303Z,28.20
2018-05-21T13:10:09.024Z,27.70
2018-05-21T13:12:41.687Z,26.50
2018-05-21T13:15:14.311Z,26.20
2018-05-21T13:17:47.022Z,27.20
2018-05-21T13:20:19.620Z,26.60
2018-05-21T13:22:52.185Z,26.20
2018-05-21T13:25:24.712Z,26.90
2018-05-21T13:27:57.349Z,27.80
2018-05-21T13:30:29.930Z,28.40
2018-05-21T13:33:02.651Z,28.50
2018-05-21T13:35:35.094Z,28.50
2018-05-21T13:38:07.851Z,28.00
2018-05-21T13:40:40.439Z,28.80
2018-05-21T13:43:13.152Z,28.20
2018-05-21T13:48:25.320Z,29.60
2018-05-21T13:50:57.891Z,29.20
2018-05-21T13:53:30.681Z,29.20
2018-05-21T13:56:03.155Z,28.70
2018-05-21T13:58:35.704Z,29.50
2018-05-21T14:01:09.092Z,28.60
2018-05-21T14:03:42.484Z,27.70
2018-05-21T14:06:15.006Z,27.70
2018-05-21T14:08:48.426Z,28.30
2018-05-21T14:11:21.076Z,28.30
2018-05-21T14:13:53.771Z,29.10
2018-05-21T14:16:26.596Z,28.10
2018-05-21T14:18:59.270Z,27.00
2018-05-21T14:21:32.626Z,26.80
2018-05-21T14:24:05.112Z,26.80
2018-05-21T14:26:37.576Z,27.50
2018-05-21T14:29:10.280Z,26.30
2018-05-21T14:31:42.708Z,26.80
2018-05-21T14:34:15.314Z,26.80
2018-05-21T14:36:48.085Z,27.30
2018-05-21T14:39:20.705Z,26.60
2018-05-21T14:41:53.585Z,27.60
2018-05-21T14:44:26.306Z,28.10
2018-05-21T14:46:59.025Z,26.80
2018-05-21T14:49:31.756Z,26.20
2018-05-21T14:52:04.402Z,27.60
2018-05-21T14:54:36.893Z,27.20
2018-05-21T14:57:09.751Z,27.30
2018-05-21T14:59:42.133Z,28.30
2018-05-21T15:02:14.835Z,26.60
2018-05-21T15:04:48.283Z,27.80
2018-05-21T15:07:20.976Z,27.80
2018-05-21T15:09:53.664Z,27.60
2018-05-21T15:12:26.130Z,28.00
2018-05-21T15:14:58.793Z,26.50
2018-05-21T15:17:32.464Z,27.70
2018-05-21T15:20:05.018Z,27.70
2018-05-21T15:22:37.775Z,27.50
2018-05-21T15:25:11.137Z,26.30
2018-05-21T15:27:43.832Z,26.30
2018-05-21T15:30:16.450Z,26.60
2018-05-21T15:32:49.121Z,26.90
2018-05-21T15:35:21.866Z,25.90
2018-05-21T15:37:54.430Z,25.80
2018-05-21T15:40:27.629Z,27.20
2018-05-21T15:43:00.894Z,26.40
2018-05-21T15:45:33.506Z,26.40
2018-05-21T15:48:06.208Z,27.10
2018-05-21T15:50:38.654Z,26.30
2018-05-21T15:53:11.485Z,25.90
2018-05-21T15:55:44.129Z,26.10
2018-05-21T15:58:16.811Z,25.70
2018-05-21T16:00:49.353Z,26.50
2018-05-21T16:03:22.051Z,25.90
2018-05-21T16:05:54.737Z,25.90
2018-05-21T16:08:27.591Z,24.80
2018-05-21T16:11:00.351Z,24.50
2018-05-21T16:13:32.869Z,23.70
2018-05-21T16:16:05.551Z,22.60
2018-05-21T16:18:38.200Z,22.50
2018-05-21T16:21:10.983Z,22.00
2018-05-21T16:23:43.524Z,21.20
2018-05-21T16:26:16.944Z,18.90
2018-05-21T16:28:50.364Z,19.30
2018-05-21T16:31:22.900Z,18.10
2018-05-21T16:33:56.114Z,16.60
2018-05-21T16:36:28.792Z,16.60
2018-05-21T16:39:01.347Z,16.20
2018-05-21T16:41:34.821Z,17.00
2018-05-21T16:44:07.398Z,16.90
2018-05-21T16:46:40.656Z,17.40
2018-05-21T16:49:13.368Z,17.40
2018-05-21T16:51:46.221Z,16.80
2018-05-21T16:54:18.836Z,18.00
2018-05-21T16:56:52.430Z,19.90
2018-05-21T16:59:25.013Z,19.90
2018-05-21T17:01:57.918Z,20.10
2018-05-21T17:04:30.655Z,21.40
2018-05-21T17:07:03.355Z,22.10
2018-05-21T17:09:36.204Z,23.20
2018-05-21T17:12:08.895Z,24.70
2018-05-21T17:14:41.406Z,25.00
2018-05-21T17:17:14.290Z,26.10
2018-05-21T17:19:46.906Z,26.50
2018-05-21T17:22:20.249Z,27.50
2018-05-21T17:24:52.971Z,27.40
2018-05-21T17:27:26.207Z,27.90
2018-05-21T17:29:58.798Z,28.70
2018-05-21T17:32:31.598Z,28.80
2018-05-21T17:35:05.088Z,29.60
2018-05-21T17:40:17.872Z,28.90
2018-05-21T17:42:50.347Z,28.90
2018-05-21T17:45:23.858Z,28.70
2018-05-21T17:47:56.742Z,30.00
2018-05-21T17:50:29.550Z,30.40
2018-05-21T17:53:02.230Z,30.40
2018-05-21T17:55:35.002Z,31.00
2018-05-21T17:58:07.687Z,30.90
2018-05-21T18:00:41.286Z,32.50
2018-05-21T18:03:13.860Z,32.50
2018-05-21T18:05:46.702Z,32.30
2018-05-21T18:08:19.416Z,31.90
2018-05-21T18:10:51.939Z,32.00
2018-05-21T18:13:24.557Z,33.40
2018-05-21T18:15:58.050Z,34.60
2018-05-21T18:18:30.844Z,34.50
2018-05-21T18:21:03.766Z,34.70
2018-05-21T18:23:36.596Z,33.80
2018-05-21T18:26:10.018Z,35.00
2018-05-21T18:28:43.605Z,34.50
2018-05-21T18:31:16.630Z,34.50
2018-05-21T18:33:50.124Z,35.60
2018-05-21T18:36:22.887Z,35.60
2018-05-21T18:38:55.976Z,35.10
2018-05-21T18:41:28.619Z,36.10
2018-05-21T18:44:01.566Z,35.90
2018-05-21T18:46:34.515Z,36.10
2018-05-21T18:49:07.344Z,37.10
2018-05-21T18:51:39.906Z,37.30
2018-05-21T18:54:12.913Z,38.10
2018-05-21T18:56:46.868Z,39.20
2018-05-21T18:59:20.325Z,39.20
2018-05-21T19:01:53.874Z,39.70
2018-05-21T19:04:26.733Z,39.60
2018-05-21T19:06:59.420Z,39.10
2018-05-21T19:09:32.287Z,39.40
2018-05-21T19:12:06.637Z,39.50
2018-05-21T19:14:40.095Z,39.50
2018-05-21T19:17:12.825Z,40.00
2018-05-21T19:19:45.987Z,40.50
2018-05-21T19:22:19.067Z,40.40
2018-05-21T19:24:51.766Z,40.70
2018-05-21T19:27:24.546Z,40.40
2018-05-21T19:29:57.202Z,40.90
2018-05-21T19:32:30.143Z,41.30
2018-05-21T19:35:02.954Z,41.30
2018-05-21T19:37:35.486Z,41.90
2018-05-21T19:40:08.486Z,41.10
2018-05-21T19:42:41.979Z,41.60
2018-05-21T19:45:14.856Z,41.40
2018-05-21T19:47:47.437Z,42.20
2018-05-21T19:50:20.160Z,42.20
2018-05-21T19:52:52.742Z,42.20
2018-05-21T19:55:25.832Z,42.90
2018-05-21T19:57:58.739Z,42.30
2018-05-21T20:00:32.073Z,43.00
2018-05-21T20:03:04.944Z,42.90
2018-05-21T20:05:37.654Z,43.40
2018-05-21T20:08:10.533Z,44.30
2018-05-21T20:10:44.128Z,44.70
2018-05-21T20:13:16.972Z,44.70
2018-05-21T20:15:49.468Z,44.40
2018-05-21T20:18:32.319Z,45.60
2018-05-21T20:21:04.950Z,45.60
2018-05-21T20:23:37.726Z,46.30
2018-05-21T20:26:10.354Z,45.10
2018-05-21T20:28:43.992Z,46.40
2018-05-21T20:31:16.471Z,46.40
2018-05-21T20:33:49.151Z,46.00
2018-05-21T20:36:22.252Z,46.00
2018-05-21T20:38:54.939Z,45.90
2018-05-21T20:41:27.603Z,46.90
2018-05-21T20:44:00.510Z,49.40
2018-05-21T20:46:32.960Z,49.40
2018-05-21T20:49:05.635Z,49.90
2018-05-21T20:51:38.304Z,50.30
2018-05-21T20:54:11.117Z,50.90
2018-05-21T20:56:43.607Z,51.10
2018-05-21T20:59:16.115Z,51.10
2018-05-21T21:01:48.594Z,50.40
2018-05-21T21:04:21.257Z,52.00
2018-05-21T21:06:53.815Z,52.20
2018-05-21T21:09:26.698Z,52.40
2018-05-21T21:11:59.394Z,52.50
2018-05-21T21:14:32.121Z,53.10
2018-05-21T21:17:05.560Z,53.10
2018-05-21T21:19:38.321Z,53.10
2018-05-21T21:22:10.961Z,53.60
2018-05-21T21:24:43.904Z,53.60
2018-05-21T21:27:17.301Z,54.10
2018-05-21T21:29:50.019Z,54.10
2018-05-21T21:32:22.668Z,54.60
2018-05-21T21:34:55.261Z,54.00
2018-05-21T21:37:27.960Z,54.60
2018-05-21T21:40:00.809Z,54.60
2018-05-21T21:42:33.549Z,54.80
2018-05-21T21:45:06.926Z,55.30
2018-05-21T21:50:18.938Z,55.00
2018-05-21T21:52:51.826Z,54.80
2018-05-21T21:55:24.285Z,54.70
2018-05-21T21:57:56.752Z,54.40
2018-05-21T22:00:29.539Z,55.30
2018-05-21T22:03:02.085Z,55.10
2018-05-21T22:05:35.454Z,54.80
2018-05-21T22:08:07.983Z,54.80
2018-05-21T22:10:40.544Z,54.90
2018-05-21T22:13:13.141Z,55.50
2018-05-21T22:15:45.912Z,55.10
2018-05-21T22:18:18.472Z,55.50
2018-05-21T22:20:51.183Z,55.80
2018-05-21T22:23:23.890Z,56.30
2018-05-21T22:25:56.639Z,57.20
2018-05-21T22:28:29.671Z,57.10
2018-05-21T22:31:02.412Z,57.30
2018-05-21T22:33:34.995Z,57.20
2018-05-21T22:36:07.678Z,57.30
2018-05-21T22:38:40.211Z,57.80
2018-05-21T22:41:12.905Z,57.50
2018-05-21T22:43:45.486Z,58.00
2018-05-21T22:46:18.025Z,58.10
2018-05-21T22:48:50.650Z,58.10
2018-05-21T22:51:23.506Z,57.10
2018-05-21T22:53:56.006Z,58.30
2018-05-21T22:56:28.614Z,57.90
2018-05-21T22:59:01.130Z,59.00
2018-05-21T23:01:33.617Z,58.70
2018-05-21T23:04:06.299Z,58.80
2018-05-21T23:06:39.008Z,59.20
2018-05-21T23:09:11.396Z,59.20
2018-05-21T23:11:44.036Z,58.90
2018-05-21T23:14:16.829Z,58.70
2018-05-21T23:16:50.105Z,58.80
2018-05-21T23:19:22.813Z,58.80
2018-05-21T23:21:55.383Z,58.70
2018-05-21T23:24:28.029Z,58.00
2018-05-21T23:27:00.394Z,58.40
2018-05-21T23:29:33.294Z,58.40
2018-05-21T23:32:05.706Z,59.20
2018-05-21T23:34:38.215Z,59.00
2018-05-21T23:37:10.790Z,59.60
2018-05-21T23:39:43.313Z,59.00
2018-05-21T23:42:15.974Z,59.30
2018-05-21T23:44:49.150Z,59.80
2018-05-21T23:47:22.349Z,58.90
2018-05-21T23:49:54.763Z,58.90
2018-05-21T23:52:27.406Z,59.90
2018-05-21T23:54:59.915Z,60.00
2018-05-21T23:57:32.323Z,60.70
